sensor_id;sensor_type;location;lat;lon;timestamp;temperature;humidity
40059;SHT31;25763;49.972;8.568;2023-04-25T00:00:47;8.94;84.71
40059;SHT31;25763;49.972;8.568;2023-04-25T00:03:12;8.81;84.83
40059;SHT31;25763;49.972;8.568;2023-04-25T00:05:39;8.84;85.05
40059;SHT31;25763;49.972;8.568;2023-04-25T00:08:04;8.83;85.08
40059;SHT31;25763;49.972;8.568;2023-04-25T00:10:30;8.81;85.04
40059;SHT31;25763;49.972;8.568;2023-04-25T00:12:56;8.78;85.18
40059;SHT31;25763;49.972;8.568;2023-04-25T00:15:22;8.77;85.25
40059;SHT31;25763;49.972;8.568;2023-04-25T00:17:48;8.73;85.45
40059;SHT31;25763;49.972;8.568;2023-04-25T00:20:13;8.73;85.52
40059;SHT31;25763;49.972;8.568;2023-04-25T00:22:38;8.77;85.44
40059;SHT31;25763;49.972;8.568;2023-04-25T00:25:05;8.77;85.39
40059;SHT31;25763;49.972;8.568;2023-04-25T00:27:31;8.88;85.33
40059;SHT31;25763;49.972;8.568;2023-04-25T00:29:57;8.88;85.29
40059;SHT31;25763;49.972;8.568;2023-04-25T00:32:22;8.94;85.20
40059;SHT31;25763;49.972;8.568;2023-04-25T00:34:47;8.89;85.18
40059;SHT31;25763;49.972;8.568;2023-04-25T00:37:13;8.74;85.44
40059;SHT31;25763;49.972;8.568;2023-04-25T00:39:38;8.78;85.48
40059;SHT31;25763;49.972;8.568;2023-04-25T00:42:04;8.71;85.60
40059;SHT31;25763;49.972;8.568;2023-04-25T00:44:31;8.65;85.88
40059;SHT31;25763;49.972;8.568;2023-04-25T00:46:57;8.74;85.66
40059;SHT31;25763;49.972;8.568;2023-04-25T00:49:22;8.63;85.94
40059;SHT31;25763;49.972;8.568;2023-04-25T00:51:48;8.60;86.06
40059;SHT31;25763;49.972;8.568;2023-04-25T00:54:14;8.67;86.06
40059;SHT31;25763;49.972;8.568;2023-04-25T00:56:39;8.78;85.74
40059;SHT31;25763;49.972;8.568;2023-04-25T00:59:05;8.78;85.81
40059;SHT31;25763;49.972;8.568;2023-04-25T01:01:31;8.89;85.50
40059;SHT31;25763;49.972;8.568;2023-04-25T01:03:58;8.91;85.27
40059;SHT31;25763;49.972;8.568;2023-04-25T01:06:24;8.81;85.53
40059;SHT31;25763;49.972;8.568;2023-04-25T01:08:51;8.75;85.75
40059;SHT31;25763;49.972;8.568;2023-04-25T01:11:17;8.78;85.73
40059;SHT31;25763;49.972;8.568;2023-04-25T01:13:42;8.85;85.67
40059;SHT31;25763;49.972;8.568;2023-04-25T01:16:08;8.71;85.95
40059;SHT31;25763;49.972;8.568;2023-04-25T01:18:33;8.73;86.10
40059;SHT31;25763;49.972;8.568;2023-04-25T01:21:09;8.81;86.06
40059;SHT31;25763;49.972;8.568;2023-04-25T01:23:36;8.84;85.85
40059;SHT31;25763;49.972;8.568;2023-04-25T01:26:02;8.94;85.60
40059;SHT31;25763;49.972;8.568;2023-04-25T01:28:28;8.97;85.46
40059;SHT31;25763;49.972;8.568;2023-04-25T01:30:54;8.99;85.30
40059;SHT31;25763;49.972;8.568;2023-04-25T01:33:21;8.98;85.35
40059;SHT31;25763;49.972;8.568;2023-04-25T01:35:46;9.02;85.27
40059;SHT31;25763;49.972;8.568;2023-04-25T01:38:13;9.06;85.11
40059;SHT31;25763;49.972;8.568;2023-04-25T01:40:40;8.92;85.56
40059;SHT31;25763;49.972;8.568;2023-04-25T01:43:06;9.05;85.29
40059;SHT31;25763;49.972;8.568;2023-04-25T01:45:33;9.05;85.33
40059;SHT31;25763;49.972;8.568;2023-04-25T01:47:59;9.02;85.22
40059;SHT31;25763;49.972;8.568;2023-04-25T01:50:25;9.08;85.09
40059;SHT31;25763;49.972;8.568;2023-04-25T01:52:50;8.99;85.02
40059;SHT31;25763;49.972;8.568;2023-04-25T01:55:15;9.05;84.93
40059;SHT31;25763;49.972;8.568;2023-04-25T01:57:41;9.09;84.86
40059;SHT31;25763;49.972;8.568;2023-04-25T02:00:07;9.01;85.10
40059;SHT31;25763;49.972;8.568;2023-04-25T02:02:34;9.11;84.83
40059;SHT31;25763;49.972;8.568;2023-04-25T02:05:00;9.15;84.81
40059;SHT31;25763;49.972;8.568;2023-04-25T02:07:26;9.16;84.65
40059;SHT31;25763;49.972;8.568;2023-04-25T02:09:52;9.16;84.74
40059;SHT31;25763;49.972;8.568;2023-04-25T02:12:17;9.14;84.76
40059;SHT31;25763;49.972;8.568;2023-04-25T02:14:43;9.15;84.70
40059;SHT31;25763;49.972;8.568;2023-04-25T02:17:08;9.22;84.52
40059;SHT31;25763;49.972;8.568;2023-04-25T02:19:33;9.16;84.53
40059;SHT31;25763;49.972;8.568;2023-04-25T02:21:59;9.06;84.71
40059;SHT31;25763;49.972;8.568;2023-04-25T02:24:24;9.01;84.92
40059;SHT31;25763;49.972;8.568;2023-04-25T02:26:50;9.02;85.10
40059;SHT31;25763;49.972;8.568;2023-04-25T02:29:15;9.06;85.00
40059;SHT31;25763;49.972;8.568;2023-04-25T02:31:41;9.11;84.91
40059;SHT31;25763;49.972;8.568;2023-04-25T02:34:07;9.06;85.03
40059;SHT31;25763;49.972;8.568;2023-04-25T02:36:32;9.14;84.85
40059;SHT31;25763;49.972;8.568;2023-04-25T02:39:00;9.12;84.81
40059;SHT31;25763;49.972;8.568;2023-04-25T02:41:26;9.14;84.79
40059;SHT31;25763;49.972;8.568;2023-04-25T02:43:52;9.11;84.88
40059;SHT31;25763;49.972;8.568;2023-04-25T02:46:17;9.14;84.71
40059;SHT31;25763;49.972;8.568;2023-04-25T02:48:42;9.16;84.67
40059;SHT31;25763;49.972;8.568;2023-04-25T02:51:08;9.11;84.78
40059;SHT31;25763;49.972;8.568;2023-04-25T02:53:34;9.04;84.75
40059;SHT31;25763;49.972;8.568;2023-04-25T02:55:59;9.02;84.92
40059;SHT31;25763;49.972;8.568;2023-04-25T02:58:25;8.87;85.16
40059;SHT31;25763;49.972;8.568;2023-04-25T03:00:50;8.87;85.34
40059;SHT31;25763;49.972;8.568;2023-04-25T03:03:15;8.95;85.10
40059;SHT31;25763;49.972;8.568;2023-04-25T03:05:43;8.83;85.44
40059;SHT31;25763;49.972;8.568;2023-04-25T03:08:09;8.73;85.58
40059;SHT31;25763;49.972;8.568;2023-04-25T03:10:34;8.74;85.58
40059;SHT31;25763;49.972;8.568;2023-04-25T03:13:00;8.84;85.37
40059;SHT31;25763;49.972;8.568;2023-04-25T03:15:25;8.78;85.43
40059;SHT31;25763;49.972;8.568;2023-04-25T03:17:50;8.77;85.38
40059;SHT31;25763;49.972;8.568;2023-04-25T03:20:16;8.88;85.25
40059;SHT31;25763;49.972;8.568;2023-04-25T03:22:41;8.87;85.19
40059;SHT31;25763;49.972;8.568;2023-04-25T03:25:07;8.89;85.07
40059;SHT31;25763;49.972;8.568;2023-04-25T03:27:33;8.80;85.27
40059;SHT31;25763;49.972;8.568;2023-04-25T03:29:58;8.70;85.55
40059;SHT31;25763;49.972;8.568;2023-04-25T03:32:24;8.77;85.59
40059;SHT31;25763;49.972;8.568;2023-04-25T03:34:49;8.81;85.38
40059;SHT31;25763;49.972;8.568;2023-04-25T03:37:15;8.88;85.25
40059;SHT31;25763;49.972;8.568;2023-04-25T03:39:40;8.91;85.13
40059;SHT31;25763;49.972;8.568;2023-04-25T03:42:05;8.92;84.95
40059;SHT31;25763;49.972;8.568;2023-04-25T03:44:31;8.83;84.95
40059;SHT31;25763;49.972;8.568;2023-04-25T03:46:56;8.89;84.92
40059;SHT31;25763;49.972;8.568;2023-04-25T03:49:22;8.92;84.81
40059;SHT31;25763;49.972;8.568;2023-04-25T03:51:47;8.91;84.65
40059;SHT31;25763;49.972;8.568;2023-04-25T03:54:12;8.87;84.38
40059;SHT31;25763;49.972;8.568;2023-04-25T03:56:38;8.88;84.14
40059;SHT31;25763;49.972;8.568;2023-04-25T03:59:03;8.92;84.03
40059;SHT31;25763;49.972;8.568;2023-04-25T04:01:28;8.88;83.76
40059;SHT31;25763;49.972;8.568;2023-04-25T04:03:54;8.87;83.79
40059;SHT31;25763;49.972;8.568;2023-04-25T04:06:19;8.83;83.65
40059;SHT31;25763;49.972;8.568;2023-04-25T04:08:46;8.74;83.38
40059;SHT31;25763;49.972;8.568;2023-04-25T04:11:11;8.64;83.10
40059;SHT31;25763;49.972;8.568;2023-04-25T04:13:37;8.60;82.80
40059;SHT31;25763;49.972;8.568;2023-04-25T04:16:02;8.36;82.83
40059;SHT31;25763;49.972;8.568;2023-04-25T04:18:29;8.21;82.90
40059;SHT31;25763;49.972;8.568;2023-04-25T04:20:55;8.21;83.06
40059;SHT31;25763;49.972;8.568;2023-04-25T04:23:20;8.18;82.93
40059;SHT31;25763;49.972;8.568;2023-04-25T04:25:47;8.15;82.98
40059;SHT31;25763;49.972;8.568;2023-04-25T04:28:13;8.15;82.78
40059;SHT31;25763;49.972;8.568;2023-04-25T04:30:39;8.15;82.83
40059;SHT31;25763;49.972;8.568;2023-04-25T04:33:04;8.29;82.71
40059;SHT31;25763;49.972;8.568;2023-04-25T04:35:29;8.32;82.47
40059;SHT31;25763;49.972;8.568;2023-04-25T04:37:55;8.26;82.36
40059;SHT31;25763;49.972;8.568;2023-04-25T04:40:21;8.39;82.21
40059;SHT31;25763;49.972;8.568;2023-04-25T04:42:47;8.35;81.62
40059;SHT31;25763;49.972;8.568;2023-04-25T04:45:13;8.40;81.50
40059;SHT31;25763;49.972;8.568;2023-04-25T04:47:39;8.30;80.90
40059;SHT31;25763;49.972;8.568;2023-04-25T04:50:08;8.26;80.54
40059;SHT31;25763;49.972;8.568;2023-04-25T04:52:38;8.20;80.24
40059;SHT31;25763;49.972;8.568;2023-04-25T04:55:04;8.25;80.54
40059;SHT31;25763;49.972;8.568;2023-04-25T04:57:30;8.36;80.71
40059;SHT31;25763;49.972;8.568;2023-04-25T04:59:56;8.29;80.57
40059;SHT31;25763;49.972;8.568;2023-04-25T05:02:22;8.38;80.65
40059;SHT31;25763;49.972;8.568;2023-04-25T05:04:47;8.47;80.67
40059;SHT31;25763;49.972;8.568;2023-04-25T05:07:13;8.50;80.43
40059;SHT31;25763;49.972;8.568;2023-04-25T05:09:38;8.46;80.28
40059;SHT31;25763;49.972;8.568;2023-04-25T05:12:04;8.49;80.19
40059;SHT31;25763;49.972;8.568;2023-04-25T05:14:29;8.56;80.39
40059;SHT31;25763;49.972;8.568;2023-04-25T05:16:55;8.53;80.01
40059;SHT31;25763;49.972;8.568;2023-04-25T05:19:20;8.59;80.08
40059;SHT31;25763;49.972;8.568;2023-04-25T05:21:45;8.67;80.24
40059;SHT31;25763;49.972;8.568;2023-04-25T05:24:11;8.64;79.91
40059;SHT31;25763;49.972;8.568;2023-04-25T05:26:37;8.70;80.13
40059;SHT31;25763;49.972;8.568;2023-04-25T05:29:02;8.81;80.12
40059;SHT31;25763;49.972;8.568;2023-04-25T05:31:27;8.83;79.99
40059;SHT31;25763;49.972;8.568;2023-04-25T05:33:53;8.89;79.85
40059;SHT31;25763;49.972;8.568;2023-04-25T05:36:19;8.91;79.96
40059;SHT31;25763;49.972;8.568;2023-04-25T05:38:45;8.91;79.66
40059;SHT31;25763;49.972;8.568;2023-04-25T05:41:10;8.98;79.52
40059;SHT31;25763;49.972;8.568;2023-04-25T05:43:35;9.05;78.55
40059;SHT31;25763;49.972;8.568;2023-04-25T05:46:01;9.16;78.39
40059;SHT31;25763;49.972;8.568;2023-04-25T05:48:26;8.98;76.67
40059;SHT31;25763;49.972;8.568;2023-04-25T05:50:52;9.18;77.83
40059;SHT31;25763;49.972;8.568;2023-04-25T05:53:18;9.33;77.84
40059;SHT31;25763;49.972;8.568;2023-04-25T05:55:44;9.39;77.31
40059;SHT31;25763;49.972;8.568;2023-04-25T05:58:09;9.47;76.67
40059;SHT31;25763;49.972;8.568;2023-04-25T06:00:35;9.48;76.19
40059;SHT31;25763;49.972;8.568;2023-04-25T06:03:00;9.57;76.21
40059;SHT31;25763;49.972;8.568;2023-04-25T06:05:26;9.65;76.00
40059;SHT31;25763;49.972;8.568;2023-04-25T06:07:51;9.65;75.39
40059;SHT31;25763;49.972;8.568;2023-04-25T06:10:17;9.77;74.66
40059;SHT31;25763;49.972;8.568;2023-04-25T06:12:43;9.98;74.62
40059;SHT31;25763;49.972;8.568;2023-04-25T06:15:09;10.17;73.59
40059;SHT31;25763;49.972;8.568;2023-04-25T06:17:35;10.48;72.88
40059;SHT31;25763;49.972;8.568;2023-04-25T06:20:01;10.33;71.25
40059;SHT31;25763;49.972;8.568;2023-04-25T06:22:27;10.23;71.52
40059;SHT31;25763;49.972;8.568;2023-04-25T06:24:52;10.65;72.06
40059;SHT31;25763;49.972;8.568;2023-04-25T06:27:17;10.77;71.40
40059;SHT31;25763;49.972;8.568;2023-04-25T06:29:43;10.83;71.36
40059;SHT31;25763;49.972;8.568;2023-04-25T06:32:08;10.82;70.13
40059;SHT31;25763;49.972;8.568;2023-04-25T06:34:33;10.73;70.34
40059;SHT31;25763;49.972;8.568;2023-04-25T06:36:59;10.99;70.21
40059;SHT31;25763;49.972;8.568;2023-04-25T06:39:24;10.93;68.81
40059;SHT31;25763;49.972;8.568;2023-04-25T06:41:50;10.80;67.74
40059;SHT31;25763;49.972;8.568;2023-04-25T06:44:16;10.93;67.69
40059;SHT31;25763;49.972;8.568;2023-04-25T06:46:41;11.15;67.23
40059;SHT31;25763;49.972;8.568;2023-04-25T06:49:06;11.44;66.89
40059;SHT31;25763;49.972;8.568;2023-04-25T06:51:32;11.61;65.39
40059;SHT31;25763;49.972;8.568;2023-04-25T06:53:57;11.58;64.84
40059;SHT31;25763;49.972;8.568;2023-04-25T06:56:23;11.80;64.89
40059;SHT31;25763;49.972;8.568;2023-04-25T06:58:49;11.63;64.79
40059;SHT31;25763;49.972;8.568;2023-04-25T07:01:14;11.90;64.30
40059;SHT31;25763;49.972;8.568;2023-04-25T07:03:39;12.24;63.89
40059;SHT31;25763;49.972;8.568;2023-04-25T07:06:05;12.14;62.98
40059;SHT31;25763;49.972;8.568;2023-04-25T07:08:30;12.14;62.19
40059;SHT31;25763;49.972;8.568;2023-04-25T07:10:56;11.83;63.36
40059;SHT31;25763;49.972;8.568;2023-04-25T07:13:21;12.04;64.89
40059;SHT31;25763;49.972;8.568;2023-04-25T07:15:46;11.69;63.94
40059;SHT31;25763;49.972;8.568;2023-04-25T07:18:13;11.71;64.96
40059;SHT31;25763;49.972;8.568;2023-04-25T07:20:38;11.41;65.31
40059;SHT31;25763;49.972;8.568;2023-04-25T07:23:04;10.79;65.97
40059;SHT31;25763;49.972;8.568;2023-04-25T07:25:29;11.01;64.99
40059;SHT31;25763;49.972;8.568;2023-04-25T07:27:56;10.99;65.46
40059;SHT31;25763;49.972;8.568;2023-04-25T07:30:21;11.65;64.81
40059;SHT31;25763;49.972;8.568;2023-04-25T07:32:48;11.93;64.18
40059;SHT31;25763;49.972;8.568;2023-04-25T07:35:13;12.02;63.20
40059;SHT31;25763;49.972;8.568;2023-04-25T07:37:39;11.74;64.12
40059;SHT31;25763;49.972;8.568;2023-04-25T07:40:05;12.04;63.58
40059;SHT31;25763;49.972;8.568;2023-04-25T07:42:30;12.50;63.24
40059;SHT31;25763;49.972;8.568;2023-04-25T07:44:56;12.57;61.54
40059;SHT31;25763;49.972;8.568;2023-04-25T07:47:21;12.36;60.89
40059;SHT31;25763;49.972;8.568;2023-04-25T07:49:47;12.17;61.77
40059;SHT31;25763;49.972;8.568;2023-04-25T07:52:12;11.87;61.43
40059;SHT31;25763;49.972;8.568;2023-04-25T07:54:37;12.14;61.34
40059;SHT31;25763;49.972;8.568;2023-04-25T07:57:03;11.91;61.92
40059;SHT31;25763;49.972;8.568;2023-04-25T07:59:28;12.15;62.33
40059;SHT31;25763;49.972;8.568;2023-04-25T08:01:54;12.60;60.90
40059;SHT31;25763;49.972;8.568;2023-04-25T08:04:19;13.14;61.56
40059;SHT31;25763;49.972;8.568;2023-04-25T08:06:44;13.36;59.80
40059;SHT31;25763;49.972;8.568;2023-04-25T08:09:10;13.26;58.83
40059;SHT31;25763;49.972;8.568;2023-04-25T08:11:36;13.12;59.06
40059;SHT31;25763;49.972;8.568;2023-04-25T08:14:02;13.71;58.97
40059;SHT31;25763;49.972;8.568;2023-04-25T08:16:27;13.51;56.75
40059;SHT31;25763;49.972;8.568;2023-04-25T08:18:53;13.79;57.73
40059;SHT31;25763;49.972;8.568;2023-04-25T08:21:18;14.02;55.55
40059;SHT31;25763;49.972;8.568;2023-04-25T08:23:43;13.37;56.37
40059;SHT31;25763;49.972;8.568;2023-04-25T08:26:09;13.37;58.71
40059;SHT31;25763;49.972;8.568;2023-04-25T08:28:34;13.73;57.71
40059;SHT31;25763;49.972;8.568;2023-04-25T08:30:59;13.85;57.59
40059;SHT31;25763;49.972;8.568;2023-04-25T08:33:25;13.62;57.35
40059;SHT31;25763;49.972;8.568;2023-04-25T08:35:51;14.05;56.47
40059;SHT31;25763;49.972;8.568;2023-04-25T08:38:17;13.65;56.49
40059;SHT31;25763;49.972;8.568;2023-04-25T08:40:43;13.61;56.54
40059;SHT31;25763;49.972;8.568;2023-04-25T08:43:08;13.44;55.88
40059;SHT31;25763;49.972;8.568;2023-04-25T08:45:41;13.41;55.89
40059;SHT31;25763;49.972;8.568;2023-04-25T08:48:11;13.26;56.81
40059;SHT31;25763;49.972;8.568;2023-04-25T08:50:50;13.57;55.82
40059;SHT31;25763;49.972;8.568;2023-04-25T08:53:17;13.40;54.93
40059;SHT31;25763;49.972;8.568;2023-04-25T08:55:46;13.61;55.59
40059;SHT31;25763;49.972;8.568;2023-04-25T08:58:12;14.18;55.41
40059;SHT31;25763;49.972;8.568;2023-04-25T09:00:38;14.37;54.18
40059;SHT31;25763;49.972;8.568;2023-04-25T09:03:03;14.05;54.04
40059;SHT31;25763;49.972;8.568;2023-04-25T09:05:29;13.70;54.47
40059;SHT31;25763;49.972;8.568;2023-04-25T09:07:55;13.29;55.79
40059;SHT31;25763;49.972;8.568;2023-04-25T09:10:21;13.06;56.20
40059;SHT31;25763;49.972;8.568;2023-04-25T09:13:02;13.30;56.33
40059;SHT31;25763;49.972;8.568;2023-04-25T09:15:28;13.50;55.10
40059;SHT31;25763;49.972;8.568;2023-04-25T09:17:58;13.71;55.27
40059;SHT31;25763;49.972;8.568;2023-04-25T09:20:23;13.18;54.86
40059;SHT31;25763;49.972;8.568;2023-04-25T09:23:01;13.22;55.38
40059;SHT31;25763;49.972;8.568;2023-04-25T09:25:34;13.19;56.42
40059;SHT31;25763;49.972;8.568;2023-04-25T09:28:03;13.48;56.22
40059;SHT31;25763;49.972;8.568;2023-04-25T09:30:31;13.30;55.84
40059;SHT31;25763;49.972;8.568;2023-04-25T09:33:03;13.65;54.77
40059;SHT31;25763;49.972;8.568;2023-04-25T09:35:29;14.54;53.34
40059;SHT31;25763;49.972;8.568;2023-04-25T09:37:55;15.39;52.58
40059;SHT31;25763;49.972;8.568;2023-04-25T09:40:20;15.71;49.94
40059;SHT31;25763;49.972;8.568;2023-04-25T09:42:46;15.18;47.86
40059;SHT31;25763;49.972;8.568;2023-04-25T09:45:14;14.61;50.47
40059;SHT31;25763;49.972;8.568;2023-04-25T09:47:40;14.68;50.74
40059;SHT31;25763;49.972;8.568;2023-04-25T09:50:14;14.21;50.51
40059;SHT31;25763;49.972;8.568;2023-04-25T09:52:40;14.42;51.24
40059;SHT31;25763;49.972;8.568;2023-04-25T09:55:06;14.48;51.46
40059;SHT31;25763;49.972;8.568;2023-04-25T09:57:31;14.33;51.57
40059;SHT31;25763;49.972;8.568;2023-04-25T09:59:58;14.44;51.70
40059;SHT31;25763;49.972;8.568;2023-04-25T10:02:26;13.41;53.02
40059;SHT31;25763;49.972;8.568;2023-04-25T10:04:54;13.24;54.13
40059;SHT31;25763;49.972;8.568;2023-04-25T10:07:22;12.99;53.85
40059;SHT31;25763;49.972;8.568;2023-04-25T10:10:03;13.24;53.79
40059;SHT31;25763;49.972;8.568;2023-04-25T10:12:29;13.62;54.05
40059;SHT31;25763;49.972;8.568;2023-04-25T10:14:57;13.79;52.44
40059;SHT31;25763;49.972;8.568;2023-04-25T10:17:23;14.20;53.35
40059;SHT31;25763;49.972;8.568;2023-04-25T10:19:48;14.13;52.97
40059;SHT31;25763;49.972;8.568;2023-04-25T10:22:21;13.30;51.85
40059;SHT31;25763;49.972;8.568;2023-04-25T10:24:49;13.64;53.34
40059;SHT31;25763;49.972;8.568;2023-04-25T10:27:16;13.92;52.27
40059;SHT31;25763;49.972;8.568;2023-04-25T10:29:41;13.88;52.25
40059;SHT31;25763;49.972;8.568;2023-04-25T10:32:08;13.12;52.92
40059;SHT31;25763;49.972;8.568;2023-04-25T10:34:41;13.48;53.51
40059;SHT31;25763;49.972;8.568;2023-04-25T10:37:10;12.99;53.74
40059;SHT31;25763;49.972;8.568;2023-04-25T10:39:38;12.64;54.00
40059;SHT31;25763;49.972;8.568;2023-04-25T10:42:04;12.92;54.91
40059;SHT31;25763;49.972;8.568;2023-04-25T10:44:30;13.30;54.16
40059;SHT31;25763;49.972;8.568;2023-04-25T10:46:56;12.95;54.32
40059;SHT31;25763;49.972;8.568;2023-04-25T10:49:36;13.05;53.67
40059;SHT31;25763;49.972;8.568;2023-04-25T10:52:14;13.06;53.70
40059;SHT31;25763;49.972;8.568;2023-04-25T10:57:34;13.12;54.21
40059;SHT31;25763;49.972;8.568;2023-04-25T11:00:22;13.96;53.49
40059;SHT31;25763;49.972;8.568;2023-04-25T11:02:52;14.85;51.85
40059;SHT31;25763;49.972;8.568;2023-04-25T11:05:36;13.86;51.87
40059;SHT31;25763;49.972;8.568;2023-04-25T11:08:02;13.81;51.78
40059;SHT31;25763;49.972;8.568;2023-04-25T11:10:33;13.92;51.77
40059;SHT31;25763;49.972;8.568;2023-04-25T11:13:00;13.74;51.71
40059;SHT31;25763;49.972;8.568;2023-04-25T11:15:26;13.65;51.60
40059;SHT31;25763;49.972;8.568;2023-04-25T11:17:53;13.79;51.81
40059;SHT31;25763;49.972;8.568;2023-04-25T11:20:18;13.61;52.67
40059;SHT31;25763;49.972;8.568;2023-04-25T11:22:45;13.36;52.69
40059;SHT31;25763;49.972;8.568;2023-04-25T11:25:12;13.33;52.85
40059;SHT31;25763;49.972;8.568;2023-04-25T11:27:58;13.27;53.08
40059;SHT31;25763;49.972;8.568;2023-04-25T11:30:26;13.02;52.76
40059;SHT31;25763;49.972;8.568;2023-04-25T11:32:52;13.15;52.98
40059;SHT31;25763;49.972;8.568;2023-04-25T11:35:19;13.14;52.59
40059;SHT31;25763;49.972;8.568;2023-04-25T11:37:45;13.26;52.93
40059;SHT31;25763;49.972;8.568;2023-04-25T11:40:12;13.33;52.49
40059;SHT31;25763;49.972;8.568;2023-04-25T11:42:38;13.58;52.54
40059;SHT31;25763;49.972;8.568;2023-04-25T11:45:05;13.19;51.79
40059;SHT31;25763;49.972;8.568;2023-04-25T11:47:32;13.65;51.89
40059;SHT31;25763;49.972;8.568;2023-04-25T11:50:06;13.70;50.91
40059;SHT31;25763;49.972;8.568;2023-04-25T11:52:43;13.14;52.18
40059;SHT31;25763;49.972;8.568;2023-04-25T11:55:13;13.24;51.60
40059;SHT31;25763;49.972;8.568;2023-04-25T11:57:39;13.39;52.65
40059;SHT31;25763;49.972;8.568;2023-04-25T12:00:10;13.40;52.63
40059;SHT31;25763;49.972;8.568;2023-04-25T12:02:37;13.34;52.47
40059;SHT31;25763;49.972;8.568;2023-04-25T12:05:05;13.29;52.87
40059;SHT31;25763;49.972;8.568;2023-04-25T12:07:31;13.20;52.63
40059;SHT31;25763;49.972;8.568;2023-04-25T12:09:56;13.39;52.00
40059;SHT31;25763;49.972;8.568;2023-04-25T12:12:27;13.65;51.55
40059;SHT31;25763;49.972;8.568;2023-04-25T12:14:52;13.41;51.98
40059;SHT31;25763;49.972;8.568;2023-04-25T12:17:17;13.40;51.95
40059;SHT31;25763;49.972;8.568;2023-04-25T12:19:43;13.77;52.29
40059;SHT31;25763;49.972;8.568;2023-04-25T12:22:23;13.50;51.80
40059;SHT31;25763;49.972;8.568;2023-04-25T12:24:49;13.41;51.40
40059;SHT31;25763;49.972;8.568;2023-04-25T12:27:16;13.15;51.40
40059;SHT31;25763;49.972;8.568;2023-04-25T12:29:50;13.12;51.95
40059;SHT31;25763;49.972;8.568;2023-04-25T12:32:16;13.59;52.18
40059;SHT31;25763;49.972;8.568;2023-04-25T12:34:42;14.20;50.51
40059;SHT31;25763;49.972;8.568;2023-04-25T12:37:07;14.37;49.68
40059;SHT31;25763;49.972;8.568;2023-04-25T12:39:32;15.04;48.19
40059;SHT31;25763;49.972;8.568;2023-04-25T12:41:58;15.14;47.55
40059;SHT31;25763;49.972;8.568;2023-04-25T12:44:24;14.24;46.71
40059;SHT31;25763;49.972;8.568;2023-04-25T12:46:50;14.85;47.99
40059;SHT31;25763;49.972;8.568;2023-04-25T12:49:15;13.92;46.59
40059;SHT31;25763;49.972;8.568;2023-04-25T12:51:40;14.79;47.12
40059;SHT31;25763;49.972;8.568;2023-04-25T12:54:07;14.34;46.63
40059;SHT31;25763;49.972;8.568;2023-04-25T12:56:33;13.55;47.96
40059;SHT31;25763;49.972;8.568;2023-04-25T12:58:59;13.18;49.38
40059;SHT31;25763;49.972;8.568;2023-04-25T13:01:25;13.15;50.35
40059;SHT31;25763;49.972;8.568;2023-04-25T13:03:51;13.06;50.09
40059;SHT31;25763;49.972;8.568;2023-04-25T13:06:19;12.87;48.85
40059;SHT31;25763;49.972;8.568;2023-04-25T13:08:45;12.70;51.03
40059;SHT31;25763;49.972;8.568;2023-04-25T13:11:10;12.88;51.17
40059;SHT31;25763;49.972;8.568;2023-04-25T13:13:36;12.88;51.19
40059;SHT31;25763;49.972;8.568;2023-04-25T13:16:02;13.08;51.24
40059;SHT31;25763;49.972;8.568;2023-04-25T13:18:31;13.18;50.90
40059;SHT31;25763;49.972;8.568;2023-04-25T13:20:57;13.06;49.42
40059;SHT31;25763;49.972;8.568;2023-04-25T13:23:24;13.32;50.24
40059;SHT31;25763;49.972;8.568;2023-04-25T13:25:49;13.77;50.99
40059;SHT31;25763;49.972;8.568;2023-04-25T13:28:15;13.88;50.37
40059;SHT31;25763;49.972;8.568;2023-04-25T13:30:41;13.67;47.76
40059;SHT31;25763;49.972;8.568;2023-04-25T13:33:07;13.65;47.38
40059;SHT31;25763;49.972;8.568;2023-04-25T13:35:34;13.34;48.65
40059;SHT31;25763;49.972;8.568;2023-04-25T13:38:00;13.36;48.68
40059;SHT31;25763;49.972;8.568;2023-04-25T13:40:26;13.57;48.18
40059;SHT31;25763;49.972;8.568;2023-04-25T13:42:52;13.89;47.48
40059;SHT31;25763;49.972;8.568;2023-04-25T13:45:18;13.86;46.69
40059;SHT31;25763;49.972;8.568;2023-04-25T13:47:43;14.02;47.10
40059;SHT31;25763;49.972;8.568;2023-04-25T13:50:09;13.95;47.20
40059;SHT31;25763;49.972;8.568;2023-04-25T13:52:35;13.92;46.56
40059;SHT31;25763;49.972;8.568;2023-04-25T13:55:00;14.14;46.81
40059;SHT31;25763;49.972;8.568;2023-04-25T13:57:28;14.76;47.40
40059;SHT31;25763;49.972;8.568;2023-04-25T13:59:53;13.93;45.99
40059;SHT31;25763;49.972;8.568;2023-04-25T14:02:19;13.73;47.31
40059;SHT31;25763;49.972;8.568;2023-04-25T14:04:44;13.34;47.12
40059;SHT31;25763;49.972;8.568;2023-04-25T14:07:10;13.62;49.03
40059;SHT31;25763;49.972;8.568;2023-04-25T14:09:36;13.85;48.16
40059;SHT31;25763;49.972;8.568;2023-04-25T14:12:02;13.48;47.16
40059;SHT31;25763;49.972;8.568;2023-04-25T14:14:27;13.44;47.06
40059;SHT31;25763;49.972;8.568;2023-04-25T14:16:53;13.86;47.21
40059;SHT31;25763;49.972;8.568;2023-04-25T14:19:22;14.20;46.26
40059;SHT31;25763;49.972;8.568;2023-04-25T14:21:48;14.21;46.36
40059;SHT31;25763;49.972;8.568;2023-04-25T14:24:14;14.42;47.14
40059;SHT31;25763;49.972;8.568;2023-04-25T14:26:39;14.10;46.48
40059;SHT31;25763;49.972;8.568;2023-04-25T14:29:06;13.83;46.93
40059;SHT31;25763;49.972;8.568;2023-04-25T14:31:37;13.64;46.78
40059;SHT31;25763;49.972;8.568;2023-04-25T14:34:02;13.71;47.21
40059;SHT31;25763;49.972;8.568;2023-04-25T14:36:28;13.40;47.73
40059;SHT31;25763;49.972;8.568;2023-04-25T14:38:54;13.68;48.17
40059;SHT31;25763;49.972;8.568;2023-04-25T14:41:19;13.46;47.87
40059;SHT31;25763;49.972;8.568;2023-04-25T14:43:44;13.19;46.57
40059;SHT31;25763;49.972;8.568;2023-04-25T14:46:10;13.04;47.45
40059;SHT31;25763;49.972;8.568;2023-04-25T14:48:36;13.05;47.17
40059;SHT31;25763;49.972;8.568;2023-04-25T14:51:02;13.16;47.73
40059;SHT31;25763;49.972;8.568;2023-04-25T14:53:27;13.32;47.01
40059;SHT31;25763;49.972;8.568;2023-04-25T14:55:53;13.27;46.58
40059;SHT31;25763;49.972;8.568;2023-04-25T14:58:19;13.30;46.62
40059;SHT31;25763;49.972;8.568;2023-04-25T15:00:45;13.40;46.59
40059;SHT31;25763;49.972;8.568;2023-04-25T15:03:11;13.81;44.84
40059;SHT31;25763;49.972;8.568;2023-04-25T15:05:38;13.79;46.45
40059;SHT31;25763;49.972;8.568;2023-04-25T15:08:03;13.48;46.34
40059;SHT31;25763;49.972;8.568;2023-04-25T15:10:29;13.30;47.18
40059;SHT31;25763;49.972;8.568;2023-04-25T15:12:54;13.04;46.95
40059;SHT31;25763;49.972;8.568;2023-04-25T15:15:20;13.02;47.74
40059;SHT31;25763;49.972;8.568;2023-04-25T15:17:46;12.99;48.11
40059;SHT31;25763;49.972;8.568;2023-04-25T15:20:12;12.99;47.99
40059;SHT31;25763;49.972;8.568;2023-04-25T15:22:42;12.95;48.40
40059;SHT31;25763;49.972;8.568;2023-04-25T15:25:09;12.82;47.65
40059;SHT31;25763;49.972;8.568;2023-04-25T15:27:35;12.68;48.32
40059;SHT31;25763;49.972;8.568;2023-04-25T15:30:06;12.67;48.80
40059;SHT31;25763;49.972;8.568;2023-04-25T15:32:32;12.94;49.95
40059;SHT31;25763;49.972;8.568;2023-04-25T15:34:57;13.09;49.69